createdAt,value
2023-06-07T00:01:01.453Z,76.00
2023-06-07T00:03:29.181Z,76.38
2023-06-07T00:05:56.822Z,76.44
2023-06-07T00:08:24.330Z,78.72
2023-06-07T00:10:51.888Z,76.79
2023-06-07T00:13:19.276Z,76.04
2023-06-07T00:15:46.732Z,76.59
2023-06-07T00:18:14.478Z,77.99
2023-06-07T00:20:42.840Z,77.04
2023-06-07T00:23:10.420Z,77.63
2023-06-07T00:25:37.916Z,77.70
2023-06-07T00:28:05.466Z,78.09
2023-06-07T00:30:33.151Z,77.52
2023-06-07T00:33:00.753Z,77.83
2023-06-07T00:35:28.301Z,77.85
2023-06-07T00:37:55.815Z,78.35
2023-06-07T00:40:23.807Z,78.99
2023-06-07T00:42:51.447Z,79.38
2023-06-07T00:45:18.986Z,79.42
2023-06-07T00:47:46.707Z,79.58
2023-06-07T00:50:15.270Z,79.79
2023-06-07T00:52:44.643Z,80.03
2023-06-07T00:55:14.515Z,80.57
2023-06-07T00:57:42.211Z,80.69
2023-06-07T01:00:10.906Z,81.02
2023-06-07T01:02:39.315Z,81.00
2023-06-07T01:05:07.148Z,81.91
2023-06-07T01:07:37.232Z,81.83
2023-06-07T01:10:07.145Z,82.59
2023-06-07T01:12:35.583Z,81.85
2023-06-07T01:15:04.053Z,81.92
2023-06-07T01:17:32.256Z,82.75
2023-06-07T01:20:01.247Z,83.82
2023-06-07T01:22:33.569Z,83.49
2023-06-07T01:25:01.208Z,82.59
2023-06-07T01:27:29.830Z,82.52
2023-06-07T01:29:59.598Z,82.47
2023-06-07T01:32:27.480Z,82.26
2023-06-07T01:34:55.738Z,82.36
2023-06-07T01:37:24.829Z,82.59
2023-06-07T01:39:54.313Z,82.64
2023-06-07T01:42:22.432Z,81.74
2023-06-07T01:44:51.608Z,82.84
2023-06-07T01:47:19.243Z,82.17
2023-06-07T01:49:49.583Z,82.27
2023-06-07T01:52:17.101Z,82.73
2023-06-07T01:54:45.212Z,82.01
2023-06-07T01:57:12.829Z,82.61
2023-06-07T01:59:57.007Z,83.65
2023-06-07T02:02:38.699Z,83.25
2023-06-07T02:05:12.955Z,83.01
2023-06-07T02:07:48.200Z,83.57
2023-06-07T02:10:19.445Z,84.47
2023-06-07T02:12:47.586Z,81.84
2023-06-07T02:15:15.198Z,83.05
2023-06-07T02:17:54.006Z,83.22
2023-06-07T02:20:21.616Z,83.80
2023-06-07T02:22:49.115Z,83.89
2023-06-07T02:25:16.840Z,83.21
2023-06-07T02:27:44.382Z,83.78
2023-06-07T02:30:12.338Z,83.91
2023-06-07T02:32:40.367Z,83.88
2023-06-07T02:35:09.118Z,84.23
2023-06-07T02:37:36.713Z,84.51
2023-06-07T02:40:06.284Z,84.10
2023-06-07T02:42:34.077Z,84.47
2023-06-07T02:45:01.601Z,84.75
2023-06-07T02:47:30.115Z,84.51
2023-06-07T02:49:58.536Z,85.96
2023-06-07T02:52:26.191Z,84.89
2023-06-07T02:54:53.691Z,85.56
2023-06-07T02:57:21.484Z,85.61
2023-06-07T02:59:48.969Z,85.84
2023-06-07T03:02:16.483Z,85.32
2023-06-07T03:04:44.036Z,85.91
2023-06-07T03:07:11.887Z,86.87
2023-06-07T03:09:40.373Z,87.16
2023-06-07T03:12:08.349Z,87.18
2023-06-07T03:14:35.821Z,86.70
2023-06-07T03:17:03.379Z,87.04
2023-06-07T03:19:31.070Z,88.47
2023-06-07T03:22:01.400Z,87.71
2023-06-07T03:24:28.914Z,88.44
2023-06-07T03:26:56.385Z,87.27
2023-06-07T03:29:24.016Z,87.45
2023-06-07T03:31:52.616Z,86.92
2023-06-07T03:34:20.209Z,88.50
2023-06-07T03:36:47.630Z,88.38
2023-06-07T03:39:15.393Z,87.87
2023-06-07T03:41:44.173Z,91.59
2023-06-07T03:44:13.389Z,85.40
2023-06-07T03:46:56.769Z,84.27
2023-06-07T03:49:24.550Z,83.17
2023-06-07T03:51:52.845Z,83.60
2023-06-07T03:54:21.633Z,83.62
2023-06-07T03:56:49.020Z,81.33
2023-06-07T03:59:16.703Z,80.25
2023-06-07T04:01:44.166Z,82.91
2023-06-07T04:04:11.770Z,83.13
2023-06-07T04:06:39.992Z,79.68
2023-06-07T04:09:07.731Z,79.37
2023-06-07T04:11:35.416Z,80.89
2023-06-07T04:14:03.252Z,83.11
2023-06-07T04:16:30.944Z,82.21
2023-06-07T04:19:01.186Z,82.85
2023-06-07T04:21:30.141Z,81.98
2023-06-07T04:23:57.981Z,83.39
2023-06-07T04:26:25.794Z,83.23
2023-06-07T04:28:54.017Z,81.27
2023-06-07T04:31:21.983Z,83.18
2023-06-07T04:33:50.306Z,81.09
2023-06-07T04:36:18.440Z,81.87
2023-06-07T04:38:57.308Z,81.75
2023-06-07T04:41:26.652Z,82.11
2023-06-07T04:43:55.591Z,80.99
2023-06-07T04:46:23.431Z,81.15
2023-06-07T04:48:51.461Z,82.21
2023-06-07T04:51:18.874Z,82.99
2023-06-07T04:53:46.550Z,84.91
2023-06-07T04:56:14.396Z,84.29
2023-06-07T04:58:41.919Z,82.75
2023-06-07T05:01:09.486Z,81.45
2023-06-07T05:03:42.961Z,81.47
2023-06-07T05:06:11.400Z,80.35
2023-06-07T05:08:39.250Z,80.88
2023-06-07T05:11:15.190Z,80.71
2023-06-07T05:13:43.789Z,81.07
2023-06-07T05:16:14.603Z,81.45
2023-06-07T05:18:42.632Z,81.50
2023-06-07T05:21:10.661Z,81.69
2023-06-07T05:23:38.975Z,81.93
2023-06-07T05:26:06.609Z,80.21
2023-06-07T05:28:34.897Z,80.49
2023-06-07T05:31:02.997Z,80.86
2023-06-07T05:33:30.757Z,79.02
2023-06-07T05:35:59.011Z,78.98
2023-06-07T05:38:26.597Z,81.84
2023-06-07T05:40:55.288Z,80.87
2023-06-07T05:43:23.781Z,80.64
2023-06-07T05:45:51.291Z,80.12
2023-06-07T05:48:18.849Z,80.37
2023-06-07T05:50:46.296Z,80.90
2023-06-07T05:53:13.831Z,78.79
2023-06-07T05:55:41.255Z,78.45
2023-06-07T05:58:09.045Z,78.04
2023-06-07T06:00:36.708Z,79.73
2023-06-07T06:03:04.387Z,79.59
2023-06-07T06:05:31.985Z,79.72
2023-06-07T06:07:59.762Z,79.02
2023-06-07T06:10:27.472Z,79.36
2023-06-07T06:12:55.249Z,79.15
2023-06-07T06:15:22.706Z,77.91
2023-06-07T06:17:50.344Z,77.62
2023-06-07T06:20:18.289Z,78.00
2023-06-07T06:22:46.143Z,78.45
2023-06-07T06:25:13.659Z,79.05
2023-06-07T06:27:41.542Z,79.09
2023-06-07T06:30:09.379Z,80.96
2023-06-07T06:32:37.026Z,79.85
2023-06-07T06:35:04.956Z,78.83
2023-06-07T06:37:32.507Z,79.19
2023-06-07T06:40:00.248Z,78.03
2023-06-07T06:42:27.685Z,78.71
2023-06-07T06:44:55.177Z,79.84
2023-06-07T06:47:22.667Z,78.97
2023-06-07T06:49:50.244Z,78.83
2023-06-07T06:52:17.602Z,78.70
2023-06-07T06:54:45.166Z,79.20
2023-06-07T06:57:12.771Z,78.26
2023-06-07T06:59:40.220Z,78.00
2023-06-07T07:02:07.880Z,77.91
2023-06-07T07:04:35.558Z,78.26
2023-06-07T07:07:03.177Z,79.28
2023-06-07T07:09:30.731Z,79.57
2023-06-07T07:11:58.437Z,79.75
2023-06-07T07:14:26.154Z,80.07
2023-06-07T07:16:54.469Z,79.42
2023-06-07T07:19:22.102Z,79.70
2023-06-07T07:21:49.458Z,77.96
2023-06-07T07:26:44.430Z,77.22
2023-06-07T07:29:11.903Z,77.64
2023-06-07T07:31:39.452Z,77.54
2023-06-07T07:34:06.930Z,77.16
2023-06-07T07:36:34.426Z,76.06
2023-06-07T07:39:02.097Z,76.68
2023-06-07T07:41:29.660Z,77.41
2023-06-07T07:43:57.134Z,76.58
2023-06-07T07:46:24.687Z,78.18
2023-06-07T07:48:52.186Z,77.76
2023-06-07T07:51:20.412Z,77.13
2023-06-07T07:53:48.043Z,76.56
2023-06-07T07:56:15.614Z,76.73
2023-06-07T07:58:46.066Z,76.48
2023-06-07T08:01:13.671Z,75.95
2023-06-07T08:03:41.135Z,78.28
2023-06-07T08:06:08.674Z,79.75
2023-06-07T08:08:36.150Z,79.50
2023-06-07T08:11:03.634Z,78.27
2023-06-07T08:13:31.201Z,78.48
2023-06-07T08:15:58.738Z,78.47
2023-06-07T08:18:26.421Z,77.89
2023-06-07T08:20:53.969Z,77.38
2023-06-07T08:23:21.341Z,77.06
2023-06-07T08:25:48.850Z,76.81
2023-06-07T08:28:16.675Z,78.72
2023-06-07T08:30:44.339Z,78.44
2023-06-07T08:33:11.800Z,78.45
2023-06-07T08:35:39.521Z,77.25
2023-06-07T08:38:06.918Z,80.28
2023-06-07T08:40:35.922Z,79.64
2023-06-07T08:43:03.582Z,80.60
2023-06-07T08:45:31.139Z,81.59
2023-06-07T08:47:58.626Z,82.70
2023-06-07T08:50:26.891Z,83.60
2023-06-07T08:53:00.836Z,82.35
2023-06-07T08:55:28.433Z,82.99
2023-06-07T08:57:56.012Z,85.90
2023-06-07T09:00:25.093Z,84.17
2023-06-07T09:02:53.597Z,82.24
2023-06-07T09:05:22.011Z,82.93
2023-06-07T09:07:50.480Z,83.48
2023-06-07T09:10:18.951Z,88.96
2023-06-07T09:12:46.938Z,84.17
2023-06-07T09:15:19.611Z,84.20
2023-06-07T09:18:05.555Z,84.17
2023-06-07T09:20:33.147Z,85.37
2023-06-07T09:23:05.183Z,84.77
2023-06-07T09:25:33.157Z,85.81
2023-06-07T09:28:03.561Z,86.05
2023-06-07T09:30:31.168Z,88.82
2023-06-07T09:32:58.932Z,87.51
2023-06-07T09:35:26.717Z,86.75
2023-06-07T09:37:54.463Z,87.61
2023-06-07T09:40:23.226Z,87.48
2023-06-07T09:43:00.597Z,87.02
2023-06-07T09:45:28.859Z,87.28
2023-06-07T09:48:07.110Z,87.61
2023-06-07T09:50:34.843Z,91.47
2023-06-07T09:53:02.333Z,88.96
2023-06-07T09:55:30.470Z,88.45
2023-06-07T09:57:57.988Z,88.43
2023-06-07T10:00:26.778Z,88.76
2023-06-07T10:03:04.432Z,87.74
2023-06-07T10:05:32.124Z,86.75
2023-06-07T10:08:00.114Z,88.03
2023-06-07T10:10:28.291Z,91.41
2023-06-07T10:12:56.997Z,88.52
2023-06-07T10:15:26.174Z,86.83
2023-06-07T10:17:56.398Z,88.67
2023-06-07T10:20:27.924Z,88.13
2023-06-07T10:23:02.426Z,90.31
2023-06-07T10:25:31.970Z,89.95
2023-06-07T10:28:36.203Z,92.99
2023-06-07T10:31:08.325Z,95.60
2023-06-07T10:33:37.034Z,93.90
2023-06-07T10:36:06.973Z,98.13
2023-06-07T10:38:35.302Z,98.30
2023-06-07T10:41:05.848Z,97.50
2023-06-07T10:43:35.010Z,96.95
2023-06-07T10:46:22.481Z,95.44
2023-06-07T10:48:54.205Z,98.57
2023-06-07T10:51:43.580Z,96.56
2023-06-07T10:54:11.040Z,95.99
2023-06-07T10:56:42.091Z,97.86
2023-06-07T10:59:15.968Z,97.73
2023-06-07T11:01:49.961Z,99.18
2023-06-07T11:04:32.919Z,98.06
2023-06-07T11:07:21.243Z,97.42
2023-06-07T11:10:09.568Z,97.47
2023-06-07T11:12:37.709Z,97.89
2023-06-07T11:15:24.895Z,97.61
2023-06-07T11:17:56.596Z,98.58
2023-06-07T11:20:39.504Z,96.97
2023-06-07T11:23:29.625Z,97.22
2023-06-07T11:26:00.913Z,97.41
2023-06-07T11:28:30.014Z,95.43
2023-06-07T11:30:57.954Z,96.67
2023-06-07T11:33:27.861Z,96.73
2023-06-07T11:35:56.198Z,96.02
2023-06-07T11:38:25.667Z,97.88
2023-06-07T11:40:53.448Z,93.36
2023-06-07T11:43:24.326Z,97.83
2023-06-07T11:45:56.944Z,87.90
2023-06-07T11:48:27.920Z,89.25
2023-06-07T11:50:59.530Z,86.04
2023-06-07T11:53:27.161Z,87.00
2023-06-07T11:55:54.809Z,84.67
2023-06-07T11:58:25.394Z,84.71
2023-06-07T12:00:53.588Z,86.70
2023-06-07T12:03:21.545Z,86.38
2023-06-07T12:05:49.488Z,84.56
2023-06-07T12:08:20.958Z,84.38
2023-06-07T12:10:56.024Z,83.90
2023-06-07T12:13:24.214Z,82.10
2023-06-07T12:15:56.010Z,82.25
2023-06-07T12:18:29.307Z,82.60
2023-06-07T12:21:03.903Z,82.36
2023-06-07T12:23:32.168Z,81.35
2023-06-07T12:26:11.051Z,82.66
2023-06-07T12:28:39.547Z,81.38
2023-06-07T12:31:22.427Z,80.98
2023-06-07T12:33:57.813Z,80.86
2023-06-07T12:36:29.687Z,80.67
2023-06-07T12:39:15.240Z,78.88
2023-06-07T12:41:42.796Z,77.16
2023-06-07T12:44:11.313Z,78.24
2023-06-07T12:46:39.080Z,77.74
2023-06-07T12:49:06.759Z,77.38
2023-06-07T12:51:35.300Z,75.82
2023-06-07T12:54:02.994Z,77.05
2023-06-07T12:56:30.776Z,76.43
2023-06-07T12:59:01.375Z,75.34
2023-06-07T13:01:30.770Z,75.57
2023-06-07T13:03:59.099Z,76.43
2023-06-07T13:06:26.635Z,75.91
2023-06-07T13:09:07.493Z,74.32
2023-06-07T13:11:36.900Z,74.48
2023-06-07T13:14:04.776Z,73.53
2023-06-07T13:16:32.962Z,72.64
2023-06-07T13:19:01.887Z,72.93
2023-06-07T13:21:30.121Z,72.01
2023-06-07T13:23:58.366Z,72.28
2023-06-07T13:26:25.941Z,73.54
2023-06-07T13:28:53.281Z,72.70
2023-06-07T13:31:20.844Z,73.00
2023-06-07T13:33:48.459Z,72.60
2023-06-07T13:36:16.022Z,70.54
2023-06-07T13:38:43.504Z,68.51
2023-06-07T13:41:11.244Z,68.71
2023-06-07T13:46:09.242Z,68.86
2023-06-07T13:48:37.722Z,66.90
2023-06-07T13:51:05.189Z,66.57
2023-06-07T13:53:32.827Z,67.60
2023-06-07T13:56:03.287Z,66.46
2023-06-07T13:58:30.858Z,67.33
2023-06-07T14:00:58.569Z,68.11
2023-06-07T14:03:26.951Z,67.76
2023-06-07T14:05:55.246Z,68.48
2023-06-07T14:08:22.884Z,67.60
2023-06-07T14:10:54.614Z,68.54
2023-06-07T14:13:22.398Z,66.76
2023-06-07T14:15:50.165Z,69.38
2023-06-07T14:18:17.694Z,65.60
2023-06-07T14:20:45.207Z,70.04
2023-06-07T14:23:12.662Z,70.46
2023-06-07T14:25:40.336Z,71.11
2023-06-07T14:28:07.749Z,70.90
2023-06-07T14:30:35.265Z,70.78
2023-06-07T14:33:02.850Z,69.05
2023-06-07T14:35:30.352Z,71.17
2023-06-07T14:37:57.792Z,70.85
2023-06-07T14:40:25.309Z,69.50
2023-06-07T14:42:52.903Z,71.74
2023-06-07T14:45:20.500Z,68.01
2023-06-07T14:47:47.951Z,69.03
2023-06-07T14:50:15.318Z,70.98
2023-06-07T14:52:42.946Z,69.50
2023-06-07T14:55:10.429Z,70.52
2023-06-07T14:57:38.345Z,71.38
2023-06-07T15:00:07.242Z,71.76
2023-06-07T15:02:34.977Z,67.36
2023-06-07T15:05:02.597Z,69.98
2023-06-07T15:07:33.986Z,70.08
2023-06-07T15:10:05.354Z,69.73
2023-06-07T15:12:39.170Z,69.70
2023-06-07T15:15:10.480Z,69.12
2023-06-07T15:17:42.118Z,69.07
2023-06-07T15:20:11.184Z,70.05
2023-06-07T15:22:44.966Z,70.47
2023-06-07T15:25:16.024Z,70.75
2023-06-07T15:27:49.404Z,68.19
2023-06-07T15:30:23.003Z,69.12
2023-06-07T15:32:53.280Z,69.20
2023-06-07T15:35:26.849Z,70.36
2023-06-07T15:37:54.743Z,70.12
2023-06-07T15:40:25.561Z,70.25
2023-06-07T15:42:57.031Z,71.77
2023-06-07T15:45:24.557Z,71.83
2023-06-07T15:47:58.194Z,73.36
2023-06-07T15:50:26.089Z,72.58
2023-06-07T15:52:56.586Z,71.17
2023-06-07T15:55:27.392Z,71.41
2023-06-07T15:57:56.309Z,71.21
2023-06-07T16:00:37.149Z,71.76
2023-06-07T16:03:06.038Z,71.60
2023-06-07T16:05:33.904Z,71.07
2023-06-07T16:08:10.505Z,71.69
2023-06-07T16:10:40.218Z,72.70
2023-06-07T16:13:07.647Z,71.86
2023-06-07T16:15:35.561Z,72.46
2023-06-07T16:18:04.914Z,73.40
2023-06-07T16:20:32.614Z,71.91
2023-06-07T16:23:00.663Z,73.49
2023-06-07T16:25:28.192Z,73.10
2023-06-07T16:27:56.197Z,73.37
2023-06-07T16:30:23.620Z,72.91
2023-06-07T16:32:54.056Z,73.29
2023-06-07T16:35:21.702Z,74.41
2023-06-07T16:37:49.119Z,74.21
2023-06-07T16:40:17.073Z,74.15
2023-06-07T16:42:44.513Z,73.62
2023-06-07T16:45:15.637Z,73.69
2023-06-07T16:47:43.255Z,73.85
2023-06-07T16:50:11.239Z,74.21
2023-06-07T16:52:38.796Z,74.65
2023-06-07T16:55:06.992Z,75.21
2023-06-07T16:57:34.443Z,74.22
2023-06-07T17:00:01.871Z,74.66
2023-06-07T17:02:29.534Z,75.52
2023-06-07T17:04:56.997Z,75.00
2023-06-07T17:07:24.704Z,76.21
2023-06-07T17:09:52.247Z,77.79
2023-06-07T17:12:20.000Z,76.80
2023-06-07T17:14:49.645Z,76.57
2023-06-07T17:17:20.488Z,74.34
2023-06-07T17:19:48.555Z,74.20
2023-06-07T17:22:19.029Z,73.81
2023-06-07T17:24:46.637Z,75.33
2023-06-07T17:27:14.178Z,74.91
2023-06-07T17:29:41.822Z,75.52
2023-06-07T17:32:09.510Z,73.43
2023-06-07T17:34:37.466Z,73.30
2023-06-07T17:37:05.331Z,72.57
2023-06-07T17:39:32.828Z,74.90
2023-06-07T17:42:00.407Z,74.71
2023-06-07T17:44:27.918Z,75.46
2023-06-07T17:46:55.710Z,76.44
2023-06-07T17:49:23.219Z,77.41
2023-06-07T17:51:50.732Z,77.08
2023-06-07T17:54:18.157Z,78.10
2023-06-07T17:56:45.637Z,77.88
2023-06-07T17:59:13.608Z,78.64
2023-06-07T18:01:41.168Z,78.21
2023-06-07T18:04:08.715Z,78.00
2023-06-07T18:06:36.241Z,78.00
2023-06-07T18:09:04.716Z,78.57
2023-06-07T18:11:32.249Z,79.87
2023-06-07T18:14:00.151Z,80.99
2023-06-07T18:16:28.094Z,78.82
2023-06-07T18:18:56.079Z,76.51
2023-06-07T18:21:23.598Z,75.52
2023-06-07T18:23:51.251Z,75.51
2023-06-07T18:26:18.890Z,75.47
2023-06-07T18:28:46.462Z,74.96
2023-06-07T18:31:14.139Z,73.41
2023-06-07T18:33:41.656Z,73.91
2023-06-07T18:36:12.204Z,67.99
2023-06-07T18:38:39.672Z,70.60
2023-06-07T18:41:07.165Z,71.83
2023-06-07T18:43:35.624Z,67.88
2023-06-07T18:46:03.556Z,68.59
2023-06-07T18:48:31.264Z,69.78
2023-06-07T18:50:58.887Z,68.54
2023-06-07T18:53:26.705Z,68.69
2023-06-07T18:55:54.400Z,68.54
2023-06-07T18:58:21.961Z,68.36
2023-06-07T19:00:49.495Z,68.60
2023-06-07T19:03:17.319Z,69.35
2023-06-07T19:05:47.811Z,69.14
2023-06-07T19:08:15.322Z,69.19
2023-06-07T19:10:43.294Z,69.49
2023-06-07T19:13:10.713Z,70.79
2023-06-07T19:15:38.273Z,68.96
2023-06-07T19:18:09.024Z,68.79
2023-06-07T19:20:37.252Z,68.47
2023-06-07T19:23:05.773Z,69.16
2023-06-07T19:25:33.838Z,69.18
2023-06-07T19:28:02.289Z,70.17
2023-06-07T19:30:29.951Z,69.36
2023-06-07T19:32:58.994Z,70.72
2023-06-07T19:35:26.857Z,70.08
2023-06-07T19:37:57.959Z,70.53
2023-06-07T19:40:26.735Z,70.36
2023-06-07T19:42:54.820Z,71.29
2023-06-07T19:45:22.391Z,69.93
2023-06-07T19:47:50.313Z,71.57
2023-06-07T19:50:18.045Z,71.84
2023-06-07T19:52:45.642Z,72.34
2023-06-07T19:55:13.181Z,72.51
2023-06-07T19:57:40.990Z,72.65
2023-06-07T20:00:10.071Z,73.64
2023-06-07T20:02:37.655Z,73.14
2023-06-07T20:05:05.491Z,72.31
2023-06-07T20:07:33.118Z,72.04
2023-06-07T20:10:01.223Z,72.51
2023-06-07T20:12:29.165Z,71.96
2023-06-07T20:14:57.839Z,73.14
2023-06-07T20:17:26.156Z,75.61
2023-06-07T20:19:54.677Z,75.73
2023-06-07T20:22:22.595Z,75.73
2023-06-07T20:24:50.261Z,76.70
2023-06-07T20:27:18.870Z,76.32
2023-06-07T20:29:46.997Z,75.80
2023-06-07T20:32:14.910Z,76.98
2023-06-07T20:34:44.857Z,79.37
2023-06-07T20:37:12.736Z,80.93
2023-06-07T20:39:40.295Z,80.46
2023-06-07T20:42:09.245Z,80.54
2023-06-07T20:44:51.998Z,80.17
2023-06-07T20:47:21.110Z,79.56
2023-06-07T20:49:48.897Z,76.69
2023-06-07T20:52:16.383Z,77.42
2023-06-07T20:54:43.916Z,75.35
2023-06-07T20:57:11.738Z,75.03
2023-06-07T20:59:46.938Z,75.83
2023-06-07T21:02:15.238Z,75.79
2023-06-07T21:04:44.861Z,75.70
2023-06-07T21:07:14.164Z,76.09
2023-06-07T21:09:42.215Z,76.38
2023-06-07T21:12:10.447Z,77.37
2023-06-07T21:14:39.894Z,76.04
2023-06-07T21:17:08.262Z,77.23
2023-06-07T21:19:35.871Z,77.08
2023-06-07T21:22:03.676Z,77.19
2023-06-07T21:24:31.988Z,78.43
2023-06-07T21:26:59.515Z,78.21
2023-06-07T21:29:26.956Z,77.87
2023-06-07T21:31:54.611Z,77.83
2023-06-07T21:34:22.245Z,77.58
2023-06-07T21:36:49.876Z,77.53
2023-06-07T21:39:17.327Z,77.69
2023-06-07T21:41:44.808Z,77.44
2023-06-07T21:44:12.363Z,77.98
2023-06-07T21:46:39.963Z,78.21
2023-06-07T21:49:07.504Z,78.21
2023-06-07T21:51:34.956Z,77.69
2023-06-07T21:54:02.722Z,79.32
2023-06-07T21:56:30.194Z,79.54
2023-06-07T21:58:57.804Z,80.61
2023-06-07T22:01:25.394Z,79.98
2023-06-07T22:03:52.954Z,80.98
2023-06-07T22:06:20.478Z,80.25
2023-06-07T22:09:06.380Z,79.87
2023-06-07T22:11:34.579Z,79.66
2023-06-07T22:14:02.104Z,79.78
2023-06-07T22:16:29.680Z,80.26
2023-06-07T22:18:57.165Z,80.35
2023-06-07T22:21:24.652Z,80.09
2023-06-07T22:23:52.210Z,80.72
2023-06-07T22:26:19.768Z,80.85
2023-06-07T22:28:47.304Z,80.89
2023-06-07T22:31:16.123Z,81.08
2023-06-07T22:33:44.800Z,81.59
2023-06-07T22:36:12.740Z,81.65
2023-06-07T22:38:40.296Z,81.82
2023-06-07T22:41:07.839Z,81.68
2023-06-07T22:43:35.201Z,81.66
2023-06-07T22:46:02.828Z,81.64
2023-06-07T22:48:30.265Z,82.42
2023-06-07T22:50:57.708Z,82.36
2023-06-07T22:53:25.257Z,82.20
2023-06-07T22:56:24.370Z,82.98
2023-06-07T22:58:52.090Z,83.47
2023-06-07T23:01:20.514Z,81.87
2023-06-07T23:03:48.866Z,83.16
2023-06-07T23:06:16.644Z,83.65
2023-06-07T23:08:44.986Z,82.40
2023-06-07T23:11:12.382Z,82.85
2023-06-07T23:13:39.837Z,83.22
2023-06-07T23:16:07.368Z,82.91
2023-06-07T23:18:34.858Z,83.21
2023-06-07T23:21:02.405Z,83.57
2023-06-07T23:23:29.935Z,83.19
2023-06-07T23:25:57.452Z,83.63
2023-06-07T23:28:24.969Z,83.51
2023-06-07T23:30:52.445Z,83.74
2023-06-07T23:33:22.961Z,84.00
2023-06-07T23:35:50.462Z,82.27
2023-06-07T23:38:17.920Z,83.42
2023-06-07T23:40:45.300Z,83.55
2023-06-07T23:43:12.886Z,83.58
2023-06-07T23:45:40.410Z,82.77
2023-06-07T23:48:07.912Z,80.78
2023-06-07T23:50:35.763Z,80.60
2023-06-07T23:53:03.089Z,81.41
2023-06-07T23:55:30.595Z,81.94
2023-06-07T23:57:58.072Z,81.95
